sensor_id;sensor_type;location;lat;lon;timestamp;P1;durP1;ratioP1;P2;durP2;ratioP2
13279;SDS011;6708;49.814;8.652;2022-09-12T00:01:26;2.30;;;2.30;;
13279;SDS011;6708;49.814;8.652;2022-09-12T00:03:56;2.20;;;2.10;;
13279;SDS011;6708;49.814;8.652;2022-09-12T00:06:29;2.27;;;2.23;;
13279;SDS011;6708;49.814;8.652;2022-09-12T00:08:59;2.77;;;2.67;;
13279;SDS011;6708;49.814;8.652;2022-09-12T00:11:29;2.60;;;2.43;;
13279;SDS011;6708;49.814;8.652;2022-09-12T00:13:59;2.50;;;2.40;;
13279;SDS011;6708;49.814;8.652;2022-09-12T00:16:29;2.50;;;2.40;;
13279;SDS011;6708;49.814;8.652;2022-09-12T00:18:59;2.43;;;2.33;;
13279;SDS011;6708;49.814;8.652;2022-09-12T00:21:31;2.73;;;2.63;;
13279;SDS011;6708;49.814;8.652;2022-09-12T00:24:00;2.93;;;2.73;;
13279;SDS011;6708;49.814;8.652;2022-09-12T00:26:29;2.50;;;2.40;;
13279;SDS011;6708;49.814;8.652;2022-09-12T00:28:57;2.30;;;2.20;;
13279;SDS011;6708;49.814;8.652;2022-09-12T00:31:26;2.63;;;2.53;;
13279;SDS011;6708;49.814;8.652;2022-09-12T00:33:55;2.80;;;2.70;;
13279;SDS011;6708;49.814;8.652;2022-09-12T00:36:25;2.63;;;2.43;;
13279;SDS011;6708;49.814;8.652;2022-09-12T00:38:56;2.93;;;2.73;;
13279;SDS011;6708;49.814;8.652;2022-09-12T00:41:26;3.50;;;2.57;;
13279;SDS011;6708;49.814;8.652;2022-09-12T00:43:56;2.70;;;2.60;;
13279;SDS011;6708;49.814;8.652;2022-09-12T00:46:30;2.70;;;2.60;;
13279;SDS011;6708;49.814;8.652;2022-09-12T00:49:07;2.30;;;2.20;;
13279;SDS011;6708;49.814;8.652;2022-09-12T00:51:39;2.17;;;2.07;;
13279;SDS011;6708;49.814;8.652;2022-09-12T00:54:13;2.33;;;2.23;;
13279;SDS011;6708;49.814;8.652;2022-09-12T00:56:44;2.40;;;2.30;;
13279;SDS011;6708;49.814;8.652;2022-09-12T00:59:15;2.53;;;2.37;;
13279;SDS011;6708;49.814;8.652;2022-09-12T01:01:48;2.80;;;2.70;;
13279;SDS011;6708;49.814;8.652;2022-09-12T01:04:18;3.03;;;2.70;;
13279;SDS011;6708;49.814;8.652;2022-09-12T01:06:48;2.77;;;2.67;;
13279;SDS011;6708;49.814;8.652;2022-09-12T01:09:20;2.93;;;2.77;;
13279;SDS011;6708;49.814;8.652;2022-09-12T01:11:49;2.33;;;2.23;;
13279;SDS011;6708;49.814;8.652;2022-09-12T01:14:19;2.57;;;2.47;;
13279;SDS011;6708;49.814;8.652;2022-09-12T01:16:48;2.37;;;2.27;;
13279;SDS011;6708;49.814;8.652;2022-09-12T01:19:24;2.63;;;2.53;;
13279;SDS011;6708;49.814;8.652;2022-09-12T01:22:20;3.17;;;2.97;;
13279;SDS011;6708;49.814;8.652;2022-09-12T01:25:04;2.43;;;2.33;;
13279;SDS011;6708;49.814;8.652;2022-09-12T01:27:41;2.60;;;2.50;;
13279;SDS011;6708;49.814;8.652;2022-09-12T01:30:22;2.50;;;2.40;;
13279;SDS011;6708;49.814;8.652;2022-09-12T01:35:59;2.30;;;2.20;;
13279;SDS011;6708;49.814;8.652;2022-09-12T01:38:35;2.63;;;2.53;;
13279;SDS011;6708;49.814;8.652;2022-09-12T01:41:08;2.43;;;2.33;;
13279;SDS011;6708;49.814;8.652;2022-09-12T01:43:40;2.67;;;2.57;;
13279;SDS011;6708;49.814;8.652;2022-09-12T01:46:16;2.70;;;2.50;;
13279;SDS011;6708;49.814;8.652;2022-09-12T01:48:46;2.40;;;2.30;;
13279;SDS011;6708;49.814;8.652;2022-09-12T01:51:22;2.70;;;2.60;;
13279;SDS011;6708;49.814;8.652;2022-09-12T01:53:57;2.43;;;2.33;;
13279;SDS011;6708;49.814;8.652;2022-09-12T01:56:30;2.20;;;2.13;;
13279;SDS011;6708;49.814;8.652;2022-09-12T01:59:02;2.70;;;2.60;;
13279;SDS011;6708;49.814;8.652;2022-09-12T02:01:41;2.53;;;2.43;;
13279;SDS011;6708;49.814;8.652;2022-09-12T02:04:15;2.70;;;2.60;;
13279;SDS011;6708;49.814;8.652;2022-09-12T02:06:47;2.40;;;2.30;;
13279;SDS011;6708;49.814;8.652;2022-09-12T02:09:21;3.07;;;2.77;;
13279;SDS011;6708;49.814;8.652;2022-09-12T02:11:52;2.70;;;2.50;;
13279;SDS011;6708;49.814;8.652;2022-09-12T02:14:24;2.70;;;2.60;;
13279;SDS011;6708;49.814;8.652;2022-09-12T02:17:00;2.60;;;2.40;;
13279;SDS011;6708;49.814;8.652;2022-09-12T02:19:33;2.80;;;2.70;;
13279;SDS011;6708;49.814;8.652;2022-09-12T02:22:06;3.10;;;2.90;;
13279;SDS011;6708;49.814;8.652;2022-09-12T02:24:39;2.73;;;2.63;;
13279;SDS011;6708;49.814;8.652;2022-09-12T02:27:10;2.60;;;2.50;;
13279;SDS011;6708;49.814;8.652;2022-09-12T02:29:42;2.80;;;2.70;;
13279;SDS011;6708;49.814;8.652;2022-09-12T02:32:15;2.60;;;2.50;;
13279;SDS011;6708;49.814;8.652;2022-09-12T02:34:50;3.13;;;2.93;;
13279;SDS011;6708;49.814;8.652;2022-09-12T02:37:24;2.70;;;2.60;;
13279;SDS011;6708;49.814;8.652;2022-09-12T02:40:00;2.87;;;2.77;;
13279;SDS011;6708;49.814;8.652;2022-09-12T02:42:31;2.60;;;2.50;;
13279;SDS011;6708;49.814;8.652;2022-09-12T02:45:00;2.87;;;2.67;;
13279;SDS011;6708;49.814;8.652;2022-09-12T02:47:33;2.90;;;2.60;;
13279;SDS011;6708;49.814;8.652;2022-09-12T02:50:05;2.70;;;2.60;;
13279;SDS011;6708;49.814;8.652;2022-09-12T02:52:34;2.60;;;2.50;;
13279;SDS011;6708;49.814;8.652;2022-09-12T02:55:03;2.50;;;2.40;;
13279;SDS011;6708;49.814;8.652;2022-09-12T02:57:32;2.70;;;2.50;;
13279;SDS011;6708;49.814;8.652;2022-09-12T03:00:04;2.80;;;2.60;;
13279;SDS011;6708;49.814;8.652;2022-09-12T03:02:41;2.90;;;2.70;;
13279;SDS011;6708;49.814;8.652;2022-09-12T03:05:20;3.03;;;2.77;;
13279;SDS011;6708;49.814;8.652;2022-09-12T03:08:01;2.77;;;2.67;;
13279;SDS011;6708;49.814;8.652;2022-09-12T03:10:42;2.73;;;2.63;;
13279;SDS011;6708;49.814;8.652;2022-09-12T03:13:23;3.23;;;3.03;;
13279;SDS011;6708;49.814;8.652;2022-09-12T03:15:58;2.60;;;2.50;;
13279;SDS011;6708;49.814;8.652;2022-09-12T03:18:42;2.93;;;2.73;;
13279;SDS011;6708;49.814;8.652;2022-09-12T03:21:21;2.63;;;2.53;;
13279;SDS011;6708;49.814;8.652;2022-09-12T03:23:56;2.47;;;2.37;;
13279;SDS011;6708;49.814;8.652;2022-09-12T03:26:31;2.67;;;2.57;;
13279;SDS011;6708;49.814;8.652;2022-09-12T03:29:03;3.17;;;3.07;;
13279;SDS011;6708;49.814;8.652;2022-09-12T03:31:33;2.90;;;2.80;;
13279;SDS011;6708;49.814;8.652;2022-09-12T03:34:07;3.67;;;3.37;;
13279;SDS011;6708;49.814;8.652;2022-09-12T03:36:37;3.67;;;3.37;;
13279;SDS011;6708;49.814;8.652;2022-09-12T03:39:09;4.93;;;3.30;;
13279;SDS011;6708;49.814;8.652;2022-09-12T03:41:38;3.03;;;2.93;;
13279;SDS011;6708;49.814;8.652;2022-09-12T03:44:07;3.47;;;3.27;;
13279;SDS011;6708;49.814;8.652;2022-09-12T03:46:37;3.67;;;3.47;;
13279;SDS011;6708;49.814;8.652;2022-09-12T03:49:09;3.50;;;3.30;;
13279;SDS011;6708;49.814;8.652;2022-09-12T03:51:37;3.90;;;3.70;;
13279;SDS011;6708;49.814;8.652;2022-09-12T03:54:07;3.60;;;3.47;;
13279;SDS011;6708;49.814;8.652;2022-09-12T03:56:35;4.00;;;3.80;;
13279;SDS011;6708;49.814;8.652;2022-09-12T03:59:04;3.77;;;3.57;;
13279;SDS011;6708;49.814;8.652;2022-09-12T04:01:33;4.27;;;3.90;;
13279;SDS011;6708;49.814;8.652;2022-09-12T04:04:03;4.40;;;4.10;;
13279;SDS011;6708;49.814;8.652;2022-09-12T04:06:34;4.10;;;3.90;;
13279;SDS011;6708;49.814;8.652;2022-09-12T04:09:04;4.43;;;4.13;;
13279;SDS011;6708;49.814;8.652;2022-09-12T04:11:35;4.40;;;4.20;;
13279;SDS011;6708;49.814;8.652;2022-09-12T04:14:04;3.90;;;3.70;;
13279;SDS011;6708;49.814;8.652;2022-09-12T04:16:32;3.83;;;3.63;;
13279;SDS011;6708;49.814;8.652;2022-09-12T04:19:00;3.93;;;3.63;;
13279;SDS011;6708;49.814;8.652;2022-09-12T04:21:29;4.53;;;3.90;;
13279;SDS011;6708;49.814;8.652;2022-09-12T04:24:00;3.30;;;3.20;;
13279;SDS011;6708;49.814;8.652;2022-09-12T04:26:29;4.10;;;3.90;;
13279;SDS011;6708;49.814;8.652;2022-09-12T04:29:00;3.83;;;3.57;;
13279;SDS011;6708;49.814;8.652;2022-09-12T04:31:28;3.50;;;3.40;;
13279;SDS011;6708;49.814;8.652;2022-09-12T04:33:58;4.10;;;3.80;;
13279;SDS011;6708;49.814;8.652;2022-09-12T04:36:36;3.83;;;3.53;;
13279;SDS011;6708;49.814;8.652;2022-09-12T04:39:13;3.00;;;2.90;;
13279;SDS011;6708;49.814;8.652;2022-09-12T04:41:42;3.30;;;3.20;;
13279;SDS011;6708;49.814;8.652;2022-09-12T04:44:13;3.20;;;3.10;;
13279;SDS011;6708;49.814;8.652;2022-09-12T04:46:42;3.50;;;3.20;;
13279;SDS011;6708;49.814;8.652;2022-09-12T04:49:12;3.40;;;3.30;;
13279;SDS011;6708;49.814;8.652;2022-09-12T04:51:45;2.80;;;2.70;;
13279;SDS011;6708;49.814;8.652;2022-09-12T04:54:18;3.13;;;3.00;;
13279;SDS011;6708;49.814;8.652;2022-09-12T04:56:48;3.00;;;2.90;;
13279;SDS011;6708;49.814;8.652;2022-09-12T04:59:19;3.07;;;2.97;;
13279;SDS011;6708;49.814;8.652;2022-09-12T05:01:53;3.57;;;3.37;;
13279;SDS011;6708;49.814;8.652;2022-09-12T05:04:24;3.43;;;3.23;;
13279;SDS011;6708;49.814;8.652;2022-09-12T05:06:52;2.97;;;2.87;;
13279;SDS011;6708;49.814;8.652;2022-09-12T05:09:25;3.07;;;2.97;;
13279;SDS011;6708;49.814;8.652;2022-09-12T05:11:55;2.93;;;2.83;;
13279;SDS011;6708;49.814;8.652;2022-09-12T05:14:24;3.50;;;3.30;;
13279;SDS011;6708;49.814;8.652;2022-09-12T05:16:52;3.20;;;3.10;;
13279;SDS011;6708;49.814;8.652;2022-09-12T05:19:25;3.50;;;3.30;;
13279;SDS011;6708;49.814;8.652;2022-09-12T05:21:55;2.90;;;2.80;;
13279;SDS011;6708;49.814;8.652;2022-09-12T05:24:27;3.50;;;3.30;;
13279;SDS011;6708;49.814;8.652;2022-09-12T05:26:55;3.13;;;2.80;;
13279;SDS011;6708;49.814;8.652;2022-09-12T05:29:24;3.43;;;3.17;;
13279;SDS011;6708;49.814;8.652;2022-09-12T05:31:55;3.07;;;2.87;;
13279;SDS011;6708;49.814;8.652;2022-09-12T05:34:23;2.57;;;2.47;;
13279;SDS011;6708;49.814;8.652;2022-09-12T05:36:53;2.77;;;2.67;;
13279;SDS011;6708;49.814;8.652;2022-09-12T05:39:22;3.00;;;2.90;;
13279;SDS011;6708;49.814;8.652;2022-09-12T05:41:56;3.27;;;3.10;;
13279;SDS011;6708;49.814;8.652;2022-09-12T05:44:24;3.07;;;2.87;;
13279;SDS011;6708;49.814;8.652;2022-09-12T05:46:54;3.20;;;3.00;;
13279;SDS011;6708;49.814;8.652;2022-09-12T05:49:23;2.90;;;2.80;;
13279;SDS011;6708;49.814;8.652;2022-09-12T05:51:52;3.23;;;3.13;;
13279;SDS011;6708;49.814;8.652;2022-09-12T05:54:21;2.90;;;2.80;;
13279;SDS011;6708;49.814;8.652;2022-09-12T05:56:52;2.93;;;2.83;;
13279;SDS011;6708;49.814;8.652;2022-09-12T05:59:24;3.20;;;3.10;;
13279;SDS011;6708;49.814;8.652;2022-09-12T06:01:52;2.87;;;2.77;;
13279;SDS011;6708;49.814;8.652;2022-09-12T06:04:21;3.60;;;3.40;;
13279;SDS011;6708;49.814;8.652;2022-09-12T06:06:54;3.70;;;3.50;;
13279;SDS011;6708;49.814;8.652;2022-09-12T06:09:23;3.00;;;2.80;;
13279;SDS011;6708;49.814;8.652;2022-09-12T06:11:59;3.30;;;3.10;;
13279;SDS011;6708;49.814;8.652;2022-09-12T06:14:31;3.77;;;3.60;;
13279;SDS011;6708;49.814;8.652;2022-09-12T06:17:00;3.40;;;3.20;;
13279;SDS011;6708;49.814;8.652;2022-09-12T06:19:29;3.17;;;3.07;;
13279;SDS011;6708;49.814;8.652;2022-09-12T06:21:58;3.40;;;3.30;;
13279;SDS011;6708;49.814;8.652;2022-09-12T06:24:26;3.20;;;3.10;;
13279;SDS011;6708;49.814;8.652;2022-09-12T06:26:56;3.47;;;3.27;;
13279;SDS011;6708;49.814;8.652;2022-09-12T06:29:26;3.33;;;3.23;;
13279;SDS011;6708;49.814;8.652;2022-09-12T06:31:59;3.30;;;3.20;;
13279;SDS011;6708;49.814;8.652;2022-09-12T06:34:28;3.60;;;3.43;;
13279;SDS011;6708;49.814;8.652;2022-09-12T06:36:58;4.00;;;3.70;;
13279;SDS011;6708;49.814;8.652;2022-09-12T06:39:27;4.00;;;3.80;;
13279;SDS011;6708;49.814;8.652;2022-09-12T06:41:55;3.73;;;3.53;;
13279;SDS011;6708;49.814;8.652;2022-09-12T06:44:32;3.40;;;3.30;;
13279;SDS011;6708;49.814;8.652;2022-09-12T06:47:04;3.37;;;3.17;;
13279;SDS011;6708;49.814;8.652;2022-09-12T06:49:33;3.47;;;3.27;;
13279;SDS011;6708;49.814;8.652;2022-09-12T06:52:02;3.73;;;3.13;;
13279;SDS011;6708;49.814;8.652;2022-09-12T06:54:31;4.27;;;2.83;;
13279;SDS011;6708;49.814;8.652;2022-09-12T06:56:59;2.80;;;2.57;;
13279;SDS011;6708;49.814;8.652;2022-09-12T06:59:29;3.10;;;2.90;;
13279;SDS011;6708;49.814;8.652;2022-09-12T07:01:57;3.03;;;2.90;;
13279;SDS011;6708;49.814;8.652;2022-09-12T07:04:29;2.80;;;2.70;;
13279;SDS011;6708;49.814;8.652;2022-09-12T07:07:00;2.90;;;2.80;;
13279;SDS011;6708;49.814;8.652;2022-09-12T07:09:30;2.47;;;2.37;;
13279;SDS011;6708;49.814;8.652;2022-09-12T07:11:58;2.73;;;2.63;;
13279;SDS011;6708;49.814;8.652;2022-09-12T07:14:28;2.83;;;2.67;;
13279;SDS011;6708;49.814;8.652;2022-09-12T07:16:58;2.90;;;2.70;;
13279;SDS011;6708;49.814;8.652;2022-09-12T07:19:29;3.17;;;3.00;;
13279;SDS011;6708;49.814;8.652;2022-09-12T07:21:58;3.10;;;2.90;;
13279;SDS011;6708;49.814;8.652;2022-09-12T07:24:28;2.93;;;2.73;;
13279;SDS011;6708;49.814;8.652;2022-09-12T07:26:57;3.57;;;2.77;;
13279;SDS011;6708;49.814;8.652;2022-09-12T07:29:28;2.80;;;2.60;;
13279;SDS011;6708;49.814;8.652;2022-09-12T07:31:57;2.60;;;2.50;;
13279;SDS011;6708;49.814;8.652;2022-09-12T07:34:26;2.77;;;2.57;;
13279;SDS011;6708;49.814;8.652;2022-09-12T07:36:57;2.73;;;2.63;;
13279;SDS011;6708;49.814;8.652;2022-09-12T07:39:25;2.97;;;2.63;;
13279;SDS011;6708;49.814;8.652;2022-09-12T07:41:54;2.97;;;2.77;;
13279;SDS011;6708;49.814;8.652;2022-09-12T07:44:23;3.20;;;3.00;;
13279;SDS011;6708;49.814;8.652;2022-09-12T07:46:52;3.37;;;3.13;;
13279;SDS011;6708;49.814;8.652;2022-09-12T07:49:22;3.23;;;3.03;;
13279;SDS011;6708;49.814;8.652;2022-09-12T07:51:56;3.03;;;2.83;;
13279;SDS011;6708;49.814;8.652;2022-09-12T07:54:24;3.27;;;3.00;;
13279;SDS011;6708;49.814;8.652;2022-09-12T07:56:52;3.57;;;2.87;;
13279;SDS011;6708;49.814;8.652;2022-09-12T07:59:23;7.60;;;3.30;;
13279;SDS011;6708;49.814;8.652;2022-09-12T08:01:53;4.17;;;3.53;;
13279;SDS011;6708;49.814;8.652;2022-09-12T08:04:22;3.80;;;3.50;;
13279;SDS011;6708;49.814;8.652;2022-09-12T08:06:50;3.83;;;3.53;;
13279;SDS011;6708;49.814;8.652;2022-09-12T08:09:23;3.77;;;3.53;;
13279;SDS011;6708;49.814;8.652;2022-09-12T08:11:51;3.53;;;3.33;;
13279;SDS011;6708;49.814;8.652;2022-09-12T08:14:20;3.73;;;3.43;;
13279;SDS011;6708;49.814;8.652;2022-09-12T08:16:49;3.67;;;3.20;;
13279;SDS011;6708;49.814;8.652;2022-09-12T08:19:18;3.80;;;3.50;;
13279;SDS011;6708;49.814;8.652;2022-09-12T08:21:47;5.10;;;3.07;;
13279;SDS011;6708;49.814;8.652;2022-09-12T08:24:16;4.00;;;3.70;;
13279;SDS011;6708;49.814;8.652;2022-09-12T08:26:47;3.63;;;3.33;;
13279;SDS011;6708;49.814;8.652;2022-09-12T08:29:17;3.90;;;3.60;;
13279;SDS011;6708;49.814;8.652;2022-09-12T08:31:45;5.13;;;3.80;;
13279;SDS011;6708;49.814;8.652;2022-09-12T08:34:15;3.30;;;3.10;;
13279;SDS011;6708;49.814;8.652;2022-09-12T08:36:47;3.20;;;3.00;;
13279;SDS011;6708;49.814;8.652;2022-09-12T08:39:16;3.77;;;3.57;;
13279;SDS011;6708;49.814;8.652;2022-09-12T08:41:48;3.40;;;3.20;;
13279;SDS011;6708;49.814;8.652;2022-09-12T08:44:36;3.50;;;3.20;;
13279;SDS011;6708;49.814;8.652;2022-09-12T08:47:13;3.60;;;3.30;;
13279;SDS011;6708;49.814;8.652;2022-09-12T08:49:51;3.53;;;3.33;;
13279;SDS011;6708;49.814;8.652;2022-09-12T08:52:25;3.15;;;2.95;;
13279;SDS011;6708;49.814;8.652;2022-09-12T08:54:57;3.72;;;3.47;;
13279;SDS011;6708;49.814;8.652;2022-09-12T08:57:28;3.22;;;3.03;;
13279;SDS011;6708;49.814;8.652;2022-09-12T08:59:57;3.05;;;2.85;;
13279;SDS011;6708;49.814;8.652;2022-09-12T09:05:17;3.30;;;3.10;;
13279;SDS011;6708;49.814;8.652;2022-09-12T09:07:56;3.78;;;3.47;;
13279;SDS011;6708;49.814;8.652;2022-09-12T09:10:36;3.40;;;3.13;;
13279;SDS011;6708;49.814;8.652;2022-09-12T09:13:14;3.42;;;3.22;;
13279;SDS011;6708;49.814;8.652;2022-09-12T09:16:08;3.45;;;3.25;;
13279;SDS011;6708;49.814;8.652;2022-09-12T09:18:43;3.20;;;3.00;;
13279;SDS011;6708;49.814;8.652;2022-09-12T09:21:15;3.28;;;3.08;;
13279;SDS011;6708;49.814;8.652;2022-09-12T09:23:55;6.35;;;3.40;;
13279;SDS011;6708;49.814;8.652;2022-09-12T09:26:29;3.42;;;3.17;;
13279;SDS011;6708;49.814;8.652;2022-09-12T09:29:10;3.00;;;2.88;;
13279;SDS011;6708;49.814;8.652;2022-09-12T09:31:42;3.33;;;3.15;;
13279;SDS011;6708;49.814;8.652;2022-09-12T09:34:14;2.92;;;2.72;;
13279;SDS011;6708;49.814;8.652;2022-09-12T09:36:48;3.20;;;3.00;;
13279;SDS011;6708;49.814;8.652;2022-09-12T09:39:30;4.25;;;3.85;;
13279;SDS011;6708;49.814;8.652;2022-09-12T09:42:10;7.13;;;3.10;;
13279;SDS011;6708;49.814;8.652;2022-09-12T09:44:47;3.00;;;2.80;;
13279;SDS011;6708;49.814;8.652;2022-09-12T09:47:16;3.42;;;3.13;;
13279;SDS011;6708;49.814;8.652;2022-09-12T09:49:46;3.47;;;3.17;;
13279;SDS011;6708;49.814;8.652;2022-09-12T09:52:15;4.18;;;3.30;;
13279;SDS011;6708;49.814;8.652;2022-09-12T09:54:45;3.00;;;2.80;;
13279;SDS011;6708;49.814;8.652;2022-09-12T10:00:26;3.70;;;3.40;;
13279;SDS011;6708;49.814;8.652;2022-09-12T10:03:03;3.30;;;3.10;;
13279;SDS011;6708;49.814;8.652;2022-09-12T10:05:48;3.17;;;2.97;;
13279;SDS011;6708;49.814;8.652;2022-09-12T10:08:19;3.65;;;3.45;;
13279;SDS011;6708;49.814;8.652;2022-09-12T10:10:52;2.83;;;2.72;;
13279;SDS011;6708;49.814;8.652;2022-09-12T10:13:23;3.15;;;3.00;;
13279;SDS011;6708;49.814;8.652;2022-09-12T10:15:59;3.40;;;3.20;;
13279;SDS011;6708;49.814;8.652;2022-09-12T10:18:33;4.10;;;3.45;;
13279;SDS011;6708;49.814;8.652;2022-09-12T10:21:13;3.53;;;3.30;;
13279;SDS011;6708;49.814;8.652;2022-09-12T10:23:44;3.72;;;3.42;;
13279;SDS011;6708;49.814;8.652;2022-09-12T10:26:18;7.45;;;3.17;;
13279;SDS011;6708;49.814;8.652;2022-09-12T10:28:52;2.75;;;2.65;;
13279;SDS011;6708;49.814;8.652;2022-09-12T10:31:26;3.95;;;3.55;;
13279;SDS011;6708;49.814;8.652;2022-09-12T10:33:58;3.30;;;3.00;;
13279;SDS011;6708;49.814;8.652;2022-09-12T10:36:33;3.05;;;2.95;;
13279;SDS011;6708;49.814;8.652;2022-09-12T10:39:05;3.38;;;3.17;;
13279;SDS011;6708;49.814;8.652;2022-09-12T10:41:34;4.80;;;3.05;;
13279;SDS011;6708;49.814;8.652;2022-09-12T10:44:04;3.00;;;2.80;;
13279;SDS011;6708;49.814;8.652;2022-09-12T10:46:38;4.10;;;3.80;;
13279;SDS011;6708;49.814;8.652;2022-09-12T10:52:15;3.38;;;3.17;;
13279;SDS011;6708;49.814;8.652;2022-09-12T10:54:47;3.35;;;3.25;;
13279;SDS011;6708;49.814;8.652;2022-09-12T10:57:21;3.50;;;3.20;;
13279;SDS011;6708;49.814;8.652;2022-09-12T11:00:08;3.08;;;2.92;;
13279;SDS011;6708;49.814;8.652;2022-09-12T11:02:56;3.67;;;3.38;;
13279;SDS011;6708;49.814;8.652;2022-09-12T11:08:23;3.15;;;2.95;;
13279;SDS011;6708;49.814;8.652;2022-09-12T11:10:58;3.25;;;3.05;;
13279;SDS011;6708;49.814;8.652;2022-09-12T11:13:37;2.92;;;2.83;;
13279;SDS011;6708;49.814;8.652;2022-09-12T11:16:17;3.08;;;2.92;;
13279;SDS011;6708;49.814;8.652;2022-09-12T11:18:57;3.28;;;3.08;;
13279;SDS011;6708;49.814;8.652;2022-09-12T11:21:38;3.10;;;3.00;;
13279;SDS011;6708;49.814;8.652;2022-09-12T11:24:19;3.25;;;3.05;;
13279;SDS011;6708;49.814;8.652;2022-09-12T11:26:56;2.95;;;2.70;;
13279;SDS011;6708;49.814;8.652;2022-09-12T11:29:34;2.90;;;2.80;;
13279;SDS011;6708;49.814;8.652;2022-09-12T11:32:12;3.75;;;3.30;;
13279;SDS011;6708;49.814;8.652;2022-09-12T11:35:00;2.67;;;2.58;;
13279;SDS011;6708;49.814;8.652;2022-09-12T11:37:39;3.03;;;2.83;;
13279;SDS011;6708;49.814;8.652;2022-09-12T11:40:22;3.10;;;2.90;;
13279;SDS011;6708;49.814;8.652;2022-09-12T11:42:56;3.30;;;3.08;;
13279;SDS011;6708;49.814;8.652;2022-09-12T11:45:28;4.40;;;2.80;;
13279;SDS011;6708;49.814;8.652;2022-09-12T11:47:59;2.65;;;2.55;;
13279;SDS011;6708;49.814;8.652;2022-09-12T11:50:40;3.05;;;2.83;;
13279;SDS011;6708;49.814;8.652;2022-09-12T11:53:11;3.03;;;2.83;;
13279;SDS011;6708;49.814;8.652;2022-09-12T11:55:47;2.90;;;2.70;;
13279;SDS011;6708;49.814;8.652;2022-09-12T11:58:21;3.35;;;3.08;;
13279;SDS011;6708;49.814;8.652;2022-09-12T12:00:54;6.88;;;3.75;;
13279;SDS011;6708;49.814;8.652;2022-09-12T12:03:26;14.25;;;3.58;;
13279;SDS011;6708;49.814;8.652;2022-09-12T12:06:03;2.78;;;2.67;;
13279;SDS011;6708;49.814;8.652;2022-09-12T12:08:43;2.85;;;2.67;;
13279;SDS011;6708;49.814;8.652;2022-09-12T12:11:15;2.33;;;2.22;;
13279;SDS011;6708;49.814;8.652;2022-09-12T12:13:54;2.90;;;2.80;;
13279;SDS011;6708;49.814;8.652;2022-09-12T12:16:26;2.75;;;2.65;;
13279;SDS011;6708;49.814;8.652;2022-09-12T12:18:58;2.60;;;2.50;;
13279;SDS011;6708;49.814;8.652;2022-09-12T12:21:34;2.90;;;2.70;;
13279;SDS011;6708;49.814;8.652;2022-09-12T12:24:14;5.63;;;2.60;;
13279;SDS011;6708;49.814;8.652;2022-09-12T12:26:54;2.40;;;2.30;;
13279;SDS011;6708;49.814;8.652;2022-09-12T12:29:37;2.53;;;2.42;;
13279;SDS011;6708;49.814;8.652;2022-09-12T12:32:20;2.30;;;2.20;;
13279;SDS011;6708;49.814;8.652;2022-09-12T12:38:24;2.20;;;2.10;;
13279;SDS011;6708;49.814;8.652;2022-09-12T12:40:58;2.38;;;2.28;;
13279;SDS011;6708;49.814;8.652;2022-09-12T12:44:37;2.50;;;2.33;;
13279;SDS011;6708;49.814;8.652;2022-09-12T12:47:13;2.45;;;2.35;;
13279;SDS011;6708;49.814;8.652;2022-09-12T12:49:49;2.80;;;2.60;;
13279;SDS011;6708;49.814;8.652;2022-09-12T12:52:20;2.75;;;2.65;;
13279;SDS011;6708;49.814;8.652;2022-09-12T12:54:56;2.30;;;2.20;;
13279;SDS011;6708;49.814;8.652;2022-09-12T12:57:34;2.50;;;2.40;;
13279;SDS011;6708;49.814;8.652;2022-09-12T13:00:24;2.60;;;2.40;;
13279;SDS011;6708;49.814;8.652;2022-09-12T13:02:57;2.33;;;2.22;;
13279;SDS011;6708;49.814;8.652;2022-09-12T13:05:28;2.53;;;2.42;;
13279;SDS011;6708;49.814;8.652;2022-09-12T13:08:02;2.20;;;2.10;;
13279;SDS011;6708;49.814;8.652;2022-09-12T13:10:37;2.90;;;2.70;;
13279;SDS011;6708;49.814;8.652;2022-09-12T13:13:08;2.70;;;2.50;;
13279;SDS011;6708;49.814;8.652;2022-09-12T13:15:47;2.30;;;2.20;;
13279;SDS011;6708;49.814;8.652;2022-09-12T13:18:19;2.00;;;1.90;;
13279;SDS011;6708;49.814;8.652;2022-09-12T13:20:53;2.35;;;2.22;;
13279;SDS011;6708;49.814;8.652;2022-09-12T13:23:36;2.60;;;2.50;;
13279;SDS011;6708;49.814;8.652;2022-09-12T13:26:12;2.63;;;2.20;;
13279;SDS011;6708;49.814;8.652;2022-09-12T13:31:39;2.15;;;2.05;;
13279;SDS011;6708;49.814;8.652;2022-09-12T13:34:08;2.33;;;2.20;;
13279;SDS011;6708;49.814;8.652;2022-09-12T13:39:19;1.90;;;1.80;;
13279;SDS011;6708;49.814;8.652;2022-09-12T13:44:54;2.22;;;2.13;;
13279;SDS011;6708;49.814;8.652;2022-09-12T13:47:26;2.42;;;2.28;;
13279;SDS011;6708;49.814;8.652;2022-09-12T13:50:00;2.10;;;2.00;;
13279;SDS011;6708;49.814;8.652;2022-09-12T13:52:34;2.78;;;2.33;;
13279;SDS011;6708;49.814;8.652;2022-09-12T13:55:04;2.03;;;1.88;;
13279;SDS011;6708;49.814;8.652;2022-09-12T13:57:36;3.42;;;1.50;;
13279;SDS011;6708;49.814;8.652;2022-09-12T14:00:11;2.17;;;2.00;;
13279;SDS011;6708;49.814;8.652;2022-09-12T14:02:44;2.25;;;2.15;;
13279;SDS011;6708;49.814;8.652;2022-09-12T14:05:17;1.80;;;1.80;;
13279;SDS011;6708;49.814;8.652;2022-09-12T14:07:51;2.33;;;2.22;;
13279;SDS011;6708;49.814;8.652;2022-09-12T14:10:25;4.25;;;2.17;;
13279;SDS011;6708;49.814;8.652;2022-09-12T14:12:56;2.17;;;2.08;;
13279;SDS011;6708;49.814;8.652;2022-09-12T14:15:29;2.22;;;1.92;;
13279;SDS011;6708;49.814;8.652;2022-09-12T14:17:59;1.70;;;1.70;;
13279;SDS011;6708;49.814;8.652;2022-09-12T14:20:35;2.58;;;2.38;;
13279;SDS011;6708;49.814;8.652;2022-09-12T14:23:09;1.92;;;1.80;;
13279;SDS011;6708;49.814;8.652;2022-09-12T14:25:43;3.33;;;2.10;;
13279;SDS011;6708;49.814;8.652;2022-09-12T14:28:12;2.95;;;2.22;;
13279;SDS011;6708;49.814;8.652;2022-09-12T14:30:55;2.13;;;1.98;;
13279;SDS011;6708;49.814;8.652;2022-09-12T14:33:26;1.58;;;1.55;;
13279;SDS011;6708;49.814;8.652;2022-09-12T14:36:06;2.15;;;1.95;;
13279;SDS011;6708;49.814;8.652;2022-09-12T14:38:39;1.90;;;1.83;;
13279;SDS011;6708;49.814;8.652;2022-09-12T14:41:09;1.80;;;1.70;;
13279;SDS011;6708;49.814;8.652;2022-09-12T14:43:40;2.25;;;2.15;;
13279;SDS011;6708;49.814;8.652;2022-09-12T14:46:17;1.52;;;1.52;;
13279;SDS011;6708;49.814;8.652;2022-09-12T14:48:47;2.05;;;1.95;;
13279;SDS011;6708;49.814;8.652;2022-09-12T14:51:19;1.73;;;1.55;;
13279;SDS011;6708;49.814;8.652;2022-09-12T14:53:49;1.40;;;1.40;;
13279;SDS011;6708;49.814;8.652;2022-09-12T14:56:19;1.55;;;1.45;;
13279;SDS011;6708;49.814;8.652;2022-09-12T14:58:49;1.30;;;1.20;;
13279;SDS011;6708;49.814;8.652;2022-09-12T15:01:24;1.60;;;1.50;;
13279;SDS011;6708;49.814;8.652;2022-09-12T15:03:54;1.65;;;1.65;;
13279;SDS011;6708;49.814;8.652;2022-09-12T15:06:24;1.52;;;1.42;;
13279;SDS011;6708;49.814;8.652;2022-09-12T15:08:55;1.55;;;1.45;;
13279;SDS011;6708;49.814;8.652;2022-09-12T15:11:25;1.30;;;1.30;;
13279;SDS011;6708;49.814;8.652;2022-09-12T15:13:53;1.33;;;1.33;;
13279;SDS011;6708;49.814;8.652;2022-09-12T15:16:25;1.52;;;1.42;;
13279;SDS011;6708;49.814;8.652;2022-09-12T15:18:53;1.25;;;1.25;;
13279;SDS011;6708;49.814;8.652;2022-09-12T15:21:22;1.60;;;1.60;;
13279;SDS011;6708;49.814;8.652;2022-09-12T15:23:51;1.17;;;1.05;;
13279;SDS011;6708;49.814;8.652;2022-09-12T15:26:22;1.63;;;1.50;;
13279;SDS011;6708;49.814;8.652;2022-09-12T15:28:52;0.93;;;0.90;;
13279;SDS011;6708;49.814;8.652;2022-09-12T15:31:22;1.30;;;1.30;;
13279;SDS011;6708;49.814;8.652;2022-09-12T15:33:54;2.00;;;1.60;;
13279;SDS011;6708;49.814;8.652;2022-09-12T15:36:23;1.27;;;1.27;;
13279;SDS011;6708;49.814;8.652;2022-09-12T15:38:53;1.80;;;1.33;;
13279;SDS011;6708;49.814;8.652;2022-09-12T15:41:24;1.27;;;1.27;;
13279;SDS011;6708;49.814;8.652;2022-09-12T15:43:55;1.63;;;1.52;;
13279;SDS011;6708;49.814;8.652;2022-09-12T15:46:27;1.60;;;1.50;;
13279;SDS011;6708;49.814;8.652;2022-09-12T15:48:55;1.70;;;1.70;;
13279;SDS011;6708;49.814;8.652;2022-09-12T15:51:24;1.85;;;1.70;;
13279;SDS011;6708;49.814;8.652;2022-09-12T15:53:53;1.30;;;1.20;;
13279;SDS011;6708;49.814;8.652;2022-09-12T15:56:21;1.45;;;1.45;;
13279;SDS011;6708;49.814;8.652;2022-09-12T15:58:50;1.63;;;1.52;;
13279;SDS011;6708;49.814;8.652;2022-09-12T16:01:19;1.55;;;1.45;;